Time,TemperatureF,DewpointF,PressureIn,WindDirection,WindDirectionDegrees,WindSpeedMPH,WindSpeedGustMPH,Humidity,HourlyPrecipIn,Conditions,Clouds,dailyrainin,SoftwareType,DateUTC
2014-10-20 00:01:00,71.4,63.1,30.03,East,93,0.0,2.0,75,0.00,,---,0.00,VWS V15.00,2014-10-20 04:01:00,
2014-10-20 00:06:00,71.4,63.1,30.03,East,96,0.0,2.0,75,0.00,,---,0.00,VWS V15.00,2014-10-20 04:06:00,
2014-10-20 00:11:00,71.3,63.3,30.03,East,82,0.0,1.0,76,0.00,,---,0.00,VWS V15.00,2014-10-20 04:11:00,
2014-10-20 00:16:00,71.2,63.3,30.03,East,90,0.0,2.0,76,0.00,,---,0.00,VWS V15.00,2014-10-20 04:16:00,
2014-10-20 00:21:00,71.2,63.3,30.02,East,98,1.0,2.0,76,0.00,,---,0.00,VWS V15.00,2014-10-20 04:21:00,
2014-10-20 00:26:00,71.2,62.9,30.02,East,83,2.0,2.0,75,0.00,,---,0.00,VWS V15.00,2014-10-20 04:26:00,
2014-10-20 00:31:00,71.2,63.3,30.02,ENE,72,0.0,2.0,76,0.00,,---,0.00,VWS V15.00,2014-10-20 04:31:00,
2014-10-20 00:36:00,71.1,62.8,30.02,WNW,297,0.0,1.0,75,0.00,,---,0.00,VWS V15.00,2014-10-20 04:36:00,
2014-10-20 00:42:00,70.9,62.6,30.02,ESE,111,0.0,2.0,75,0.00,,---,0.00,VWS V15.00,2014-10-20 04:42:00,
2014-10-20 00:47:00,70.6,62.7,30.02,East,95,1.0,2.0,76,0.00,,---,0.00,VWS V15.00,2014-10-20 04:47:00,
2014-10-20 00:52:00,70.4,62.5,30.02,East,92,1.0,2.0,76,0.00,,---,0.00,VWS V15.00,2014-10-20 04:52:00,
2014-10-20 00:57:00,70.3,62.8,30.02,East,88,0.0,2.0,77,0.00,,---,0.00,VWS V15.00,2014-10-20 04:57:00,
2014-10-20 01:02:00,70.1,62.2,30.01,East,80,2.0,2.0,76,0.00,,---,0.00,VWS V15.00,2014-10-20 05:02:00,
2014-10-20 01:07:00,70.1,62.2,30.01,East,92,1.0,2.0,76,0.00,,---,0.00,VWS V15.00,2014-10-20 05:07:00,
2014-10-20 01:12:00,70.1,62.2,30.01,East,90,1.0,2.0,76,0.00,,---,0.00,VWS V15.00,2014-10-20 05:12:00,
2014-10-20 01:17:00,70.2,62.7,30.01,East,95,0.0,2.0,77,0.00,,---,0.00,VWS V15.00,2014-10-20 05:17:00,
2014-10-20 01:22:00,70.3,62.8,30.01,East,91,0.0,2.0,77,0.00,,---,0.00,VWS V15.00,2014-10-20 05:22:00,
2014-10-20 01:27:00,70.3,62.8,30.01,East,96,1.0,2.0,77,0.00,,---,0.00,VWS V15.00,2014-10-20 05:27:00,
2014-10-20 01:33:00,70.3,62.8,30.01,ESE,111,1.0,2.0,77,0.00,,---,0.00,VWS V15.00,2014-10-20 05:33:00,
2014-10-20 01:38:00,70.3,62.8,30.01,East,86,0.0,2.0,77,0.00,,---,0.00,VWS V15.00,2014-10-20 05:38:00,
2014-10-20 01:43:00,70.4,63.6,30.01,NNW,335,0.0,2.0,79,0.00,,---,0.00,VWS V15.00,2014-10-20 05:43:00,
2014-10-20 01:48:00,70.3,62.8,30.01,East,88,2.0,2.0,77,0.00,,---,0.00,VWS V15.00,2014-10-20 05:48:00,
2014-10-20 01:53:00,70.2,63.0,30.01,East,98,2.0,2.0,78,0.00,,---,0.00,VWS V15.00,2014-10-20 05:53:00,
2014-10-20 01:58:00,70.0,63.2,30.00,East,91,0.0,1.0,79,0.00,,---,0.00,VWS V15.00,2014-10-20 05:58:00,
2014-10-20 02:03:00,69.9,63.1,30.01,East,98,0.0,2.0,79,0.00,,---,0.00,VWS V15.00,2014-10-20 06:03:00,
2014-10-20 02:08:00,69.7,62.9,30.01,East,88,2.0,2.0,79,0.00,,---,0.00,VWS V15.00,2014-10-20 06:08:00,
2014-10-20 02:13:00,69.7,62.9,30.01,East,86,0.0,1.0,79,0.00,,---,0.00,VWS V15.00,2014-10-20 06:13:00,
2014-10-20 02:18:00,69.6,63.5,30.01,ESE,105,0.0,2.0,81,0.00,,---,0.00,VWS V15.00,2014-10-20 06:18:00,
2014-10-20 02:23:00,69.6,63.5,30.01,ESE,113,0.0,2.0,81,0.00,,---,0.00,VWS V15.00,2014-10-20 06:23:00,
2014-10-20 02:28:00,69.5,63.4,30.01,North,351,0.0,1.0,81,0.00,,---,0.00,VWS V15.00,2014-10-20 06:28:00,
2014-10-20 02:33:00,69.5,63.4,30.01,South,170,0.0,2.0,81,0.00,,---,0.00,VWS V15.00,2014-10-20 06:33:00,
2014-10-20 02:38:00,69.5,63.8,30.00,East,84,0.0,1.0,82,0.00,,---,0.00,VWS V15.00,2014-10-20 06:38:00,
2014-10-20 02:43:00,69.3,63.2,30.00,East,92,0.0,2.0,81,0.00,,---,0.00,VWS V15.00,2014-10-20 06:43:00,
2014-10-20 02:48:00,69.1,63.0,30.00,ENE,78,0.0,2.0,81,0.00,,---,0.00,VWS V15.00,2014-10-20 06:48:00,
2014-10-20 02:53:00,69.1,63.4,30.00,NW,306,0.0,2.0,82,0.00,,---,0.00,VWS V15.00,2014-10-20 06:53:00,
2014-10-20 02:58:00,68.9,63.2,30.00,ESE,104,2.0,2.0,82,0.00,,---,0.00,VWS V15.00,2014-10-20 06:58:00,
2014-10-20 03:03:00,68.9,63.2,29.99,East,96,1.0,2.0,82,0.00,,---,0.00,VWS V15.00,2014-10-20 07:03:00,
2014-10-20 03:08:00,68.8,63.1,30.00,East,101,0.0,3.0,82,0.00,,---,0.00,VWS V15.00,2014-10-20 07:08:00,
2014-10-20 03:13:00,68.7,63.0,29.99,East,92,2.0,2.0,82,0.00,,---,0.00,VWS V15.00,2014-10-20 07:13:00,
2014-10-20 03:18:00,68.6,62.9,29.99,ENE,69,1.0,2.0,82,0.00,,---,0.00,VWS V15.00,2014-10-20 07:18:00,
2014-10-20 03:23:00,68.6,62.9,29.99,East,94,0.0,2.0,82,0.00,,---,0.00,VWS V15.00,2014-10-20 07:23:00,
2014-10-20 03:28:00,68.6,62.9,29.99,East,94,0.0,1.0,82,0.00,,---,0.00,VWS V15.00,2014-10-20 07:28:00,
2014-10-20 03:33:00,68.6,63.2,30.00,ESE,108,0.0,2.0,83,0.00,,---,0.00,VWS V15.00,2014-10-20 07:33:00,
2014-10-20 03:38:00,68.5,63.1,29.99,East,94,0.0,1.0,83,0.00,,---,0.00,VWS V15.00,2014-10-20 07:38:00,
2014-10-20 03:43:00,68.5,63.1,29.99,East,92,1.0,3.0,83,0.00,,---,0.00,VWS V15.00,2014-10-20 07:43:00,
2014-10-20 03:48:00,68.5,63.1,29.99,East,94,2.0,3.0,83,0.00,,---,0.00,VWS V15.00,2014-10-20 07:48:00,
2014-10-20 03:53:00,68.4,63.0,29.99,East,85,0.0,2.0,83,0.00,,---,0.00,VWS V15.00,2014-10-20 07:53:00,
2014-10-20 03:58:00,68.5,63.5,29.99,ENE,77,0.0,1.0,84,0.00,,---,0.00,VWS V15.00,2014-10-20 07:58:00,
2014-10-20 04:03:00,68.4,63.4,29.99,East,99,0.0,1.0,84,0.00,,---,0.00,VWS V15.00,2014-10-20 08:03:00,
2014-10-20 04:08:00,68.3,63.3,30.00,ESE,103,0.0,1.0,84,0.00,,---,0.00,VWS V15.00,2014-10-20 08:08:00,
2014-10-20 04:13:00,68.3,63.6,30.00,ESE,107,0.0,1.0,85,0.00,,---,0.00,VWS V15.00,2014-10-20 08:13:00,
2014-10-20 04:18:00,68.4,63.7,30.00,East,97,0.0,1.0,85,0.00,,---,0.00,VWS V15.00,2014-10-20 08:18:00,
2014-10-20 04:23:00,68.2,63.5,29.99,ESE,115,0.0,1.0,85,0.00,,---,0.00,VWS V15.00,2014-10-20 08:23:00,
2014-10-20 04:28:00,68.2,63.5,30.00,ESE,111,0.0,1.0,85,0.00,,---,0.00,VWS V15.00,2014-10-20 08:28:00,
2014-10-20 04:33:00,68.3,64.0,29.99,NE,44,0.0,0.0,86,0.00,,---,0.00,VWS V15.00,2014-10-20 08:33:00,
2014-10-20 04:38:00,68.2,63.9,29.99,East,82,0.0,0.0,86,0.00,,---,0.00,VWS V15.00,2014-10-20 08:38:00,
2014-10-20 04:43:00,68.1,64.1,29.99,ESE,113,0.0,1.0,87,0.00,,---,0.00,VWS V15.00,2014-10-20 08:43:00,
2014-10-20 04:48:00,68.1,64.1,29.99,East,96,0.0,1.0,87,0.00,,---,0.00,VWS V15.00,2014-10-20 08:48:00,
2014-10-20 04:53:00,68.0,64.3,29.99,East,96,0.0,1.0,88,0.00,,---,0.00,VWS V15.00,2014-10-20 08:53:00,
2014-10-20 04:58:00,68.0,64.3,29.99,East,93,0.0,0.0,88,0.00,,---,0.00,VWS V15.00,2014-10-20 08:58:00,
2014-10-20 05:03:00,68.1,64.7,30.00,East,82,0.0,1.0,89,0.00,,---,0.00,VWS V15.00,2014-10-20 09:03:00,
2014-10-20 05:08:00,68.0,64.6,30.00,ESE,110,0.0,1.0,89,0.00,,---,0.00,VWS V15.00,2014-10-20 09:08:00,
2014-10-20 05:13:00,67.9,64.5,29.99,ESE,110,0.0,1.0,89,0.00,,---,0.00,VWS V15.00,2014-10-20 09:13:00,
2014-10-20 05:18:00,67.7,64.3,29.99,ESE,105,0.0,1.0,89,0.00,,---,0.00,VWS V15.00,2014-10-20 09:18:00,
2014-10-20 05:23:00,67.6,64.2,29.99,SE,127,1.0,2.0,89,0.00,,---,0.00,VWS V15.00,2014-10-20 09:23:00,
2014-10-20 05:28:00,67.6,64.6,30.00,East,94,0.0,2.0,90,0.00,,---,0.00,VWS V15.00,2014-10-20 09:28:00,
2014-10-20 05:33:00,67.5,64.5,30.00,East,93,0.0,1.0,90,0.00,,---,0.00,VWS V15.00,2014-10-20 09:33:00,
2014-10-20 05:38:00,67.4,64.4,30.00,ESE,104,1.0,1.0,90,0.00,,---,0.00,VWS V15.00,2014-10-20 09:38:00,
2014-10-20 05:43:00,67.3,64.6,30.00,ESE,103,0.0,1.0,91,0.00,,---,0.00,VWS V15.00,2014-10-20 09:43:00,
2014-10-20 05:48:00,67.2,64.5,30.00,East,98,0.0,0.0,91,0.00,,---,0.00,VWS V15.00,2014-10-20 09:48:00,
2014-10-20 05:53:00,67.2,64.5,30.00,East,95,1.0,1.0,91,0.00,,---,0.00,VWS V15.00,2014-10-20 09:53:00,
2014-10-20 05:58:00,67.2,64.8,30.00,East,100,0.0,1.0,92,0.00,,---,0.00,VWS V15.00,2014-10-20 09:58:00,
2014-10-20 06:03:00,67.2,64.8,30.00,ESE,105,0.0,1.0,92,0.00,,---,0.00,VWS V15.00,2014-10-20 10:03:00,
2014-10-20 06:08:00,67.1,64.7,30.00,ESE,109,0.0,1.0,92,0.00,,---,0.00,VWS V15.00,2014-10-20 10:08:00,
2014-10-20 06:13:00,67.1,64.7,30.00,East,94,1.0,1.0,92,0.00,,---,0.00,VWS V15.00,2014-10-20 10:13:00,
2014-10-20 06:18:00,67.1,64.7,30.00,East,100,0.0,1.0,92,0.00,,---,0.00,VWS V15.00,2014-10-20 10:18:00,
2014-10-20 06:23:00,67.2,64.8,30.00,East,88,0.0,1.0,92,0.00,,---,0.00,VWS V15.00,2014-10-20 10:23:00,
2014-10-20 06:28:00,67.1,65.0,30.01,East,100,0.0,1.0,93,0.00,,---,0.00,VWS V15.00,2014-10-20 10:28:00,
2014-10-20 06:33:00,67.1,65.0,30.00,ESE,107,0.0,1.0,93,0.00,,---,0.00,VWS V15.00,2014-10-20 10:33:00,
2014-10-20 06:38:00,67.2,65.1,30.01,West,269,1.0,1.0,93,0.00,,---,0.00,VWS V15.00,2014-10-20 10:38:00,
2014-10-20 06:43:00,67.1,65.0,30.01,ESE,123,0.0,2.0,93,0.00,,---,0.00,VWS V15.00,2014-10-20 10:43:00,
2014-10-20 06:48:00,67.1,65.0,30.01,SE,134,0.0,1.0,93,0.00,,---,0.00,VWS V15.00,2014-10-20 10:48:00,
2014-10-20 06:53:00,67.0,64.9,30.01,East,100,0.0,1.0,93,0.00,,---,0.00,VWS V15.00,2014-10-20 10:53:00,
2014-10-20 06:58:00,67.0,64.9,30.01,ESE,103,1.0,1.0,93,0.00,,---,0.00,VWS V15.00,2014-10-20 10:58:00,
2014-10-20 07:03:00,67.0,64.9,30.01,ESE,107,0.0,1.0,93,0.00,,---,0.00,VWS V15.00,2014-10-20 11:03:00,
2014-10-20 07:08:00,67.1,65.0,30.01,ESE,109,0.0,1.0,93,0.00,,---,0.00,VWS V15.00,2014-10-20 11:08:00,
2014-10-20 07:13:00,67.0,64.9,30.01,East,79,0.0,1.0,93,0.00,,---,0.00,VWS V15.00,2014-10-20 11:13:00,
2014-10-20 07:18:00,67.0,64.9,30.01,ESE,108,0.0,2.0,93,0.00,,---,0.00,VWS V15.00,2014-10-20 11:18:00,
2014-10-20 07:23:00,67.0,64.9,30.01,ESE,109,1.0,1.0,93,0.00,,---,0.00,VWS V15.00,2014-10-20 11:23:00,
2014-10-20 07:28:00,67.0,64.9,30.01,East,101,1.0,2.0,93,0.00,,---,0.00,VWS V15.00,2014-10-20 11:28:00,
2014-10-20 07:33:00,67.1,65.0,30.02,East,88,0.0,1.0,93,0.00,,---,0.00,VWS V15.00,2014-10-20 11:33:00,
2014-10-20 07:38:00,67.2,65.4,30.02,ENE,74,0.0,1.0,94,0.00,,---,0.00,VWS V15.00,2014-10-20 11:38:00,
2014-10-20 07:43:00,67.3,65.2,30.02,ESE,106,0.0,1.0,93,0.00,,---,0.00,VWS V15.00,2014-10-20 11:43:00,
2014-10-20 07:48:00,67.4,65.3,30.02,ESE,104,0.0,1.0,93,0.00,,---,0.00,VWS V15.00,2014-10-20 11:48:00,
2014-10-20 07:53:00,67.5,65.4,30.02,East,101,1.0,2.0,93,0.00,,---,0.00,VWS V15.00,2014-10-20 11:53:00,
2014-10-20 07:58:00,67.6,65.5,30.02,ESE,105,0.0,1.0,93,0.00,,---,0.00,VWS V15.00,2014-10-20 11:58:00,
2014-10-20 08:03:00,67.8,65.7,30.02,ESE,102,0.0,1.0,93,0.00,,---,0.00,VWS V15.00,2014-10-20 12:03:00,
2014-10-20 08:08:00,68.0,65.9,30.02,NW,314,0.0,1.0,93,0.00,,---,0.00,VWS V15.00,2014-10-20 12:08:00,
2014-10-20 08:13:00,68.3,66.2,30.02,NW,309,0.0,1.0,93,0.00,,---,0.00,VWS V15.00,2014-10-20 12:13:00,
2014-10-20 08:18:00,68.7,66.6,30.02,NW,307,0.0,0.0,93,0.00,,---,0.00,VWS V15.00,2014-10-20 12:18:00,
2014-10-20 08:23:00,69.2,66.5,30.02,NW,304,1.0,1.0,91,0.00,,---,0.00,VWS V15.00,2014-10-20 12:23:00,
2014-10-20 08:28:00,69.8,67.1,30.02,WNW,295,1.0,2.0,91,0.00,,---,0.00,VWS V15.00,2014-10-20 12:28:00,
2014-10-20 08:33:00,70.1,67.0,30.02,NW,317,1.0,2.0,90,0.00,,---,0.00,VWS V15.00,2014-10-20 12:33:00,
2014-10-20 08:38:00,70.3,67.2,30.03,WNW,292,2.0,2.0,90,0.00,,---,0.00,VWS V15.00,2014-10-20 12:38:00,
2014-10-20 08:43:00,70.5,67.1,30.03,WNW,291,1.0,2.0,89,0.00,,---,0.00,VWS V15.00,2014-10-20 12:43:00,
2014-10-20 08:48:00,70.6,67.2,30.03,WNW,301,1.0,4.0,89,0.00,,---,0.00,VWS V15.00,2014-10-20 12:48:00,
2014-10-20 08:53:00,70.8,67.4,30.03,WNW,283,0.0,2.0,89,0.00,,---,0.00,VWS V15.00,2014-10-20 12:53:00,
2014-10-20 08:58:00,70.9,67.2,30.03,SE,130,1.0,3.0,88,0.00,,---,0.00,VWS V15.00,2014-10-20 12:58:00,
2014-10-20 09:03:00,71.1,67.4,30.03,NW,323,3.0,3.0,88,0.00,,---,0.00,VWS V15.00,2014-10-20 13:03:00,
2014-10-20 09:08:00,71.3,67.6,30.03,West,273,0.0,3.0,88,0.00,,---,0.00,VWS V15.00,2014-10-20 13:08:00,
2014-10-20 09:13:00,71.4,67.7,30.03,NW,309,1.0,3.0,88,0.00,,---,0.00,VWS V15.00,2014-10-20 13:13:00,
2014-10-20 09:18:00,71.5,67.4,30.04,NW,309,2.0,3.0,87,0.00,,---,0.00,VWS V15.00,2014-10-20 13:18:00,
2014-10-20 09:23:00,71.7,67.6,30.04,NW,323,2.0,3.0,87,0.00,,---,0.00,VWS V15.00,2014-10-20 13:23:00,
2014-10-20 09:28:00,72.0,67.9,30.04,NNW,329,5.0,5.0,87,0.00,,---,0.00,VWS V15.00,2014-10-20 13:28:00,
2014-10-20 09:33:00,72.3,68.2,30.04,NW,316,2.0,5.0,87,0.00,,---,0.00,VWS V15.00,2014-10-20 13:33:00,
2014-10-20 09:38:00,72.6,68.5,30.04,NW,313,2.0,3.0,87,0.00,,---,0.00,VWS V15.00,2014-10-20 13:38:00,
2014-10-20 09:43:00,72.8,68.7,30.04,NW,307,2.0,3.0,87,0.00,,---,0.00,VWS V15.00,2014-10-20 13:43:00,
2014-10-20 09:48:00,73.0,68.6,30.04,NW,320,4.0,5.0,86,0.00,,---,0.00,VWS V15.00,2014-10-20 13:48:00,
2014-10-20 09:53:00,73.3,68.9,30.04,NW,315,2.0,4.0,86,0.00,,---,0.00,VWS V15.00,2014-10-20 13:53:00,
2014-10-20 09:58:00,73.4,69.0,30.04,NNE,13,1.0,4.0,86,0.00,,---,0.00,VWS V15.00,2014-10-20 13:58:00,
2014-10-20 10:03:00,73.9,69.1,30.04,WNW,302,1.0,4.0,85,0.00,,---,0.00,VWS V15.00,2014-10-20 14:03:00,
2014-10-20 10:08:00,74.4,68.9,30.04,NW,307,1.0,4.0,83,0.00,,---,0.00,VWS V15.00,2014-10-20 14:08:00,
2014-10-20 10:13:00,75.0,68.8,30.04,WNW,284,0.0,1.0,81,0.00,,---,0.00,VWS V15.00,2014-10-20 14:13:00,
2014-10-20 10:18:00,75.9,69.7,30.04,ENE,75,3.0,3.0,81,0.00,,---,0.00,VWS V15.00,2014-10-20 14:18:00,
2014-10-20 10:23:00,76.4,68.7,30.04,East,90,2.0,4.0,77,0.00,,---,0.00,VWS V15.00,2014-10-20 14:23:00,
2014-10-20 10:28:00,77.3,68.8,30.03,East,93,2.0,3.0,75,0.00,,---,0.00,VWS V15.00,2014-10-20 14:28:00,
2014-10-20 10:33:00,77.8,68.9,30.03,WNW,291,0.0,2.0,74,0.00,,---,0.00,VWS V15.00,2014-10-20 14:33:00,
2014-10-20 10:38:00,78.5,69.5,30.03,NNE,18,2.0,5.0,74,0.00,,---,0.00,VWS V15.00,2014-10-20 14:38:00,
2014-10-20 10:43:00,78.6,69.6,30.03,East,81,1.0,4.0,74,0.00,,---,0.00,VWS V15.00,2014-10-20 14:43:00,
2014-10-20 10:48:00,79.2,70.2,30.03,NW,310,2.0,2.0,74,0.00,,---,0.00,VWS V15.00,2014-10-20 14:48:00,
2014-10-20 10:53:00,79.6,69.8,30.03,East,91,2.0,3.0,72,0.00,,---,0.00,VWS V15.00,2014-10-20 14:53:00,
2014-10-20 10:58:00,79.4,70.0,30.03,NW,314,2.0,5.0,73,0.00,,---,0.00,VWS V15.00,2014-10-20 14:58:00,
2014-10-20 11:03:00,79.5,70.1,30.03,NW,305,2.0,4.0,73,0.00,,---,0.00,VWS V15.00,2014-10-20 15:03:00,
2014-10-20 11:08:00,79.9,70.1,30.03,SSE,148,0.0,2.0,72,0.00,,---,0.00,VWS V15.00,2014-10-20 15:08:00,
2014-10-20 11:13:00,80.3,69.2,30.03,NNW,334,3.0,6.0,69,0.00,,---,0.00,VWS V15.00,2014-10-20 15:13:00,
2014-10-20 11:18:00,80.1,70.7,30.03,NNW,333,4.0,5.0,73,0.00,,---,0.00,VWS V15.00,2014-10-20 15:18:00,
2014-10-20 11:23:00,80.5,69.0,30.03,WNW,299,1.0,4.0,68,0.00,,---,0.00,VWS V15.00,2014-10-20 15:23:00,
2014-10-20 11:29:00,81.4,68.5,30.03,SE,142,1.0,2.0,65,0.00,,---,0.00,VWS V15.00,2014-10-20 15:29:00,
2014-10-20 11:34:00,82.1,69.2,30.03,ESE,107,2.0,2.0,65,0.00,,---,0.00,VWS V15.00,2014-10-20 15:34:00,
2014-10-20 11:39:00,82.6,68.7,30.03,East,86,1.0,1.0,63,0.00,,---,0.00,VWS V15.00,2014-10-20 15:39:00,
2014-10-20 11:44:00,83.1,69.2,30.03,East,92,3.0,3.0,63,0.00,,---,0.00,VWS V15.00,2014-10-20 15:44:00,
2014-10-20 11:49:00,83.4,69.0,30.02,East,83,0.0,0.0,62,0.00,,---,0.00,VWS V15.00,2014-10-20 15:49:00,
2014-10-20 11:54:00,84.0,68.1,30.02,ENE,75,1.0,2.0,59,0.00,,---,0.00,VWS V15.00,2014-10-20 15:54:00,
2014-10-20 11:59:00,84.1,68.2,30.02,ESE,108,2.0,3.0,59,0.00,,---,0.00,VWS V15.00,2014-10-20 15:59:00,
2014-10-20 12:04:00,84.0,67.1,30.01,SSW,213,2.0,2.0,57,0.00,,---,0.00,VWS V15.00,2014-10-20 16:04:00,
2014-10-20 12:09:00,84.2,67.8,30.01,SSE,148,0.0,3.0,58,0.00,,---,0.00,VWS V15.00,2014-10-20 16:09:00,
2014-10-20 12:14:00,84.2,66.8,30.01,ESE,110,2.0,5.0,56,0.00,,---,0.00,VWS V15.00,2014-10-20 16:14:00,
2014-10-20 12:19:00,84.3,67.4,30.01,East,96,5.0,5.0,57,0.00,,---,0.00,VWS V15.00,2014-10-20 16:19:00,
2014-10-20 12:24:00,84.5,67.6,30.00,East,98,0.0,3.0,57,0.00,,---,0.00,VWS V15.00,2014-10-20 16:24:00,
2014-10-20 12:30:00,84.8,66.8,30.00,SE,125,4.0,4.0,55,0.00,,---,0.00,VWS V15.00,2014-10-20 16:30:00,
2014-10-20 12:35:00,84.7,65.7,30.00,SE,142,1.0,2.0,53,0.00,,---,0.00,VWS V15.00,2014-10-20 16:35:00,
2014-10-20 12:40:00,84.2,65.8,30.00,ESE,119,0.0,1.0,54,0.00,,---,0.00,VWS V15.00,2014-10-20 16:40:00,
2014-10-20 12:45:00,84.6,67.7,30.00,East,81,1.0,1.0,57,0.00,,---,0.00,VWS V15.00,2014-10-20 16:45:00,
2014-10-20 12:50:00,85.2,67.2,30.00,East,96,2.0,5.0,55,0.00,,---,0.00,VWS V15.00,2014-10-20 16:50:00,
2014-10-20 12:55:00,85.2,66.7,30.00,SSE,162,1.0,4.0,54,0.00,,---,0.00,VWS V15.00,2014-10-20 16:55:00,
2014-10-20 13:00:00,85.7,66.6,29.99,East,95,3.0,5.0,53,0.00,,---,0.00,VWS V15.00,2014-10-20 17:00:00,
2014-10-20 13:05:00,85.8,67.2,29.99,SW,217,0.0,1.0,54,0.00,,---,0.00,VWS V15.00,2014-10-20 17:05:00,
2014-10-20 13:10:00,86.1,67.0,29.98,East,94,3.0,4.0,53,0.00,,---,0.00,VWS V15.00,2014-10-20 17:10:00,
2014-10-20 13:15:00,85.7,66.1,29.98,East,101,1.0,2.0,52,0.00,,---,0.00,VWS V15.00,2014-10-20 17:15:00,
2014-10-20 13:20:00,85.1,65.5,29.98,East,86,2.0,4.0,52,0.00,,---,0.00,VWS V15.00,2014-10-20 17:20:00,
2014-10-20 13:25:00,85.7,66.1,29.98,SSE,159,3.0,3.0,52,0.00,,---,0.00,VWS V15.00,2014-10-20 17:25:00,
2014-10-20 13:30:00,86.3,66.6,29.98,South,171,2.0,6.0,52,0.00,,---,0.00,VWS V15.00,2014-10-20 17:30:00,
2014-10-20 13:35:00,86.4,67.3,29.98,SE,139,0.0,3.0,53,0.00,,---,0.00,VWS V15.00,2014-10-20 17:35:00,
2014-10-20 13:40:00,85.4,65.2,29.97,WSW,248,0.0,2.0,51,0.00,,---,0.00,VWS V15.00,2014-10-20 17:40:00,
2014-10-20 13:45:00,85.2,67.2,29.97,WNW,299,1.0,1.0,55,0.00,,---,0.00,VWS V15.00,2014-10-20 17:45:00,
2014-10-20 13:51:00,86.0,67.4,29.97,SE,136,3.0,5.0,54,0.00,,---,0.00,VWS V15.00,2014-10-20 17:51:00,
2014-10-20 13:56:00,86.0,66.3,29.97,SSE,148,2.0,5.0,52,0.00,,---,0.00,VWS V15.00,2014-10-20 17:56:00,
2014-10-20 14:01:00,85.7,66.1,29.96,South,170,1.0,4.0,52,0.00,,---,0.00,VWS V15.00,2014-10-20 18:01:00,
2014-10-20 14:06:00,85.1,66.1,29.96,WSW,244,0.0,2.0,53,0.00,,---,0.00,VWS V15.00,2014-10-20 18:06:00,
2014-10-20 14:11:00,85.0,66.0,29.96,SSE,168,0.0,1.0,53,0.00,,---,0.00,VWS V15.00,2014-10-20 18:11:00,